createdAt,value
2023-03-16T00:00:44.659Z,101177.71
2023-03-16T00:05:53.165Z,101166.08
2023-03-16T00:11:00.347Z,101164.79
2023-03-16T00:16:08.027Z,101170.67
2023-03-16T00:21:15.023Z,101170.80
2023-03-16T00:26:22.601Z,101174.35
2023-03-16T00:31:30.153Z,101178.86
2023-03-16T00:36:38.463Z,101179.96
2023-03-16T00:41:45.721Z,101182.99
2023-03-16T00:46:53.081Z,101187.27
2023-03-16T00:52:00.235Z,101189.59
2023-03-16T00:57:07.457Z,101192.42
2023-03-16T01:02:15.700Z,101198.93
2023-03-16T01:07:23.701Z,101197.08
2023-03-16T01:12:31.319Z,101202.02
2023-03-16T01:17:38.557Z,101207.01
2023-03-16T01:22:46.273Z,101201.73
2023-03-16T01:27:53.934Z,101201.70
2023-03-16T01:33:01.282Z,101202.42
2023-03-16T01:38:09.994Z,101208.15
2023-03-16T01:43:21.113Z,101211.44
2023-03-16T01:48:30.947Z,101214.59
2023-03-16T01:53:39.917Z,101217.48
2023-03-16T01:58:48.135Z,101215.80
2023-03-16T02:04:02.543Z,101220.68
2023-03-16T02:09:11.660Z,101224.74
2023-03-16T02:14:18.957Z,101227.96
2023-03-16T02:19:35.832Z,101235.20
2023-03-16T02:24:43.776Z,101239.10
2023-03-16T02:30:12.918Z,101237.89
2023-03-16T02:35:27.904Z,101234.55
2023-03-16T02:40:36.897Z,101238.70
2023-03-16T02:45:52.442Z,101240.85
2023-03-16T02:51:01.005Z,101240.61
2023-03-16T02:56:09.025Z,101238.39
2023-03-16T03:01:17.056Z,101246.92
2023-03-16T03:06:25.412Z,101241.55
2023-03-16T03:11:33.221Z,101240.98
2023-03-16T03:16:40.812Z,101238.36
2023-03-16T03:21:48.455Z,101239.31
2023-03-16T03:26:55.710Z,101248.33
2023-03-16T03:32:03.137Z,101249.77
2023-03-16T03:37:11.435Z,101247.85
2023-03-16T03:42:20.050Z,101249.96
2023-03-16T03:47:27.429Z,101252.11
2023-03-16T03:52:34.717Z,101259.64
2023-03-16T03:57:42.361Z,101260.16
2023-03-16T04:02:50.459Z,101260.73
2023-03-16T04:08:12.521Z,101260.27
2023-03-16T04:13:20.167Z,101258.15
2023-03-16T04:18:27.524Z,101259.73
2023-03-16T04:23:34.950Z,101258.91
2023-03-16T04:28:43.435Z,101264.55
2023-03-16T04:33:54.884Z,101267.33
2023-03-16T04:39:02.712Z,101277.58
2023-03-16T04:44:10.110Z,101277.03
2023-03-16T04:49:17.366Z,101275.53
2023-03-16T04:54:25.629Z,101271.89
2023-03-16T04:59:33.147Z,101269.79
2023-03-16T05:04:57.561Z,101273.03
2023-03-16T05:10:05.421Z,101277.77
2023-03-16T05:15:14.329Z,101279.55
2023-03-16T05:20:23.533Z,101280.83
2023-03-16T05:25:32.986Z,101278.66
2023-03-16T05:30:45.459Z,101280.35
2023-03-16T05:35:58.302Z,101282.33
2023-03-16T05:41:06.900Z,101283.40
2023-03-16T05:46:30.101Z,101287.98
2023-03-16T05:51:38.638Z,101288.87
2023-03-16T05:56:46.444Z,101294.46
2023-03-16T06:01:55.287Z,101294.67
2023-03-16T06:07:02.553Z,101300.09
2023-03-16T06:12:10.886Z,101300.89
2023-03-16T06:17:20.516Z,101302.05
2023-03-16T06:22:28.053Z,101307.20
2023-03-16T06:27:35.468Z,101304.96
2023-03-16T06:32:52.397Z,101303.71
2023-03-16T06:38:00.324Z,101306.66
2023-03-16T06:43:17.154Z,101309.70
2023-03-16T06:48:24.688Z,101307.27
2023-03-16T06:53:32.204Z,101311.58
2023-03-16T06:58:39.601Z,101317.20
2023-03-16T07:03:47.858Z,101321.01
2023-03-16T07:09:01.535Z,101333.43
2023-03-16T07:14:10.210Z,101335.65
2023-03-16T07:19:17.832Z,101334.17
2023-03-16T07:32:17.696Z,101341.59
2023-03-16T07:37:26.986Z,101338.19
2023-03-16T07:42:36.809Z,101345.95
2023-03-16T07:47:49.173Z,101347.16
2023-03-16T07:53:06.556Z,101349.52
2023-03-16T07:58:15.651Z,101351.20
2023-03-16T08:03:23.851Z,101349.77
2023-03-16T08:08:31.788Z,101346.98
2023-03-16T08:13:37.613Z,101345.29
2023-03-16T08:18:44.923Z,101351.35
2023-03-16T08:23:52.814Z,101356.20
2023-03-16T08:29:03.603Z,101358.29
2023-03-16T08:34:14.047Z,101360.30
2023-03-16T08:39:23.665Z,101358.75
2023-03-16T08:44:31.262Z,101366.02
2023-03-16T08:49:39.558Z,101364.10
2023-03-16T08:55:02.456Z,101368.73
2023-03-16T09:00:15.625Z,101375.29
2023-03-16T09:05:25.638Z,101375.88
2023-03-16T09:10:33.359Z,101383.79
2023-03-16T09:15:40.755Z,101394.35
2023-03-16T09:20:48.142Z,101397.77
2023-03-16T09:29:28.292Z,101407.41
2023-03-16T09:34:36.807Z,101413.55
2023-03-16T09:39:44.244Z,101412.55
2023-03-16T09:45:03.515Z,101418.51
2023-03-16T09:50:47.740Z,101422.34
2023-03-16T09:56:04.900Z,101427.67
2023-03-16T10:01:25.454Z,101426.03
2023-03-16T10:06:33.524Z,101430.08
2023-03-16T10:11:45.378Z,101434.58
2023-03-16T10:16:57.215Z,101441.41
2023-03-16T10:22:14.319Z,101449.36
2023-03-16T10:27:28.460Z,101449.21
2023-03-16T10:32:38.685Z,101454.79
2023-03-16T10:37:49.349Z,101454.20
2023-03-16T10:42:57.022Z,101453.35
2023-03-16T10:48:15.698Z,101454.55
2023-03-16T10:53:30.973Z,101457.73
2023-03-16T10:58:49.207Z,101461.25
2023-03-16T11:03:58.643Z,101469.84
2023-03-16T11:09:16.940Z,101467.86
2023-03-16T11:14:35.270Z,101466.39
2023-03-16T11:19:51.871Z,101474.86
2023-03-16T11:25:06.675Z,101473.89
2023-03-16T11:30:20.801Z,101476.17
2023-03-16T11:35:46.542Z,101470.52
2023-03-16T11:41:02.874Z,101471.45
2023-03-16T11:46:16.948Z,101480.08
2023-03-16T11:51:36.902Z,101484.52
2023-03-16T11:56:51.252Z,101483.36
2023-03-16T12:02:19.368Z,101492.55
2023-03-16T12:07:46.592Z,101490.82
2023-03-16T12:13:03.366Z,101485.25
2023-03-16T12:18:18.210Z,101487.11
2023-03-16T12:23:33.011Z,101488.75
2023-03-16T12:28:42.324Z,101487.50
2023-03-16T12:34:09.965Z,101493.64
2023-03-16T12:39:36.536Z,101496.48
2023-03-16T12:44:50.269Z,101500.81
2023-03-16T12:50:30.274Z,101507.56
2023-03-16T12:55:47.258Z,101510.89
2023-03-16T13:01:01.005Z,101514.91
2023-03-16T13:06:17.951Z,101520.09
2023-03-16T13:11:27.190Z,101514.95
2023-03-16T13:17:05.628Z,101519.03
2023-03-16T13:22:43.199Z,101525.58
2023-03-16T13:28:01.677Z,101528.40
2023-03-16T13:33:43.827Z,101533.55
2023-03-16T13:39:04.474Z,101534.73
2023-03-16T13:44:18.798Z,101537.90
2023-03-16T13:49:26.261Z,101541.70
2023-03-16T13:55:00.143Z,101541.83
2023-03-16T14:00:18.374Z,101543.15
2023-03-16T14:05:30.870Z,101546.61
2023-03-16T14:10:40.513Z,101546.53
2023-03-16T14:15:47.986Z,101540.86
2023-03-16T14:20:56.602Z,101536.29
2023-03-16T14:26:08.131Z,101538.19
2023-03-16T14:31:20.982Z,101537.52
2023-03-16T14:36:38.527Z,101539.11
2023-03-16T14:42:43.490Z,101539.55
2023-03-16T14:48:21.735Z,101537.08
2023-03-16T14:53:32.034Z,101536.64
2023-03-16T14:58:42.304Z,101536.42
2023-03-16T15:03:49.523Z,101540.50
2023-03-16T15:08:57.443Z,101543.30
2023-03-16T15:14:35.786Z,101540.94
2023-03-16T15:19:43.298Z,101543.53
2023-03-16T15:24:52.677Z,101548.94
2023-03-16T15:29:59.994Z,101551.34
2023-03-16T15:35:08.130Z,101549.44
2023-03-16T15:40:22.512Z,101552.98
2023-03-16T15:45:44.645Z,101559.23
2023-03-16T15:50:58.683Z,101558.45
2023-03-16T15:56:08.771Z,101555.16
2023-03-16T16:01:24.230Z,101555.44
2023-03-16T16:06:32.043Z,101563.11
2023-03-16T16:11:40.319Z,101571.83
2023-03-16T16:16:48.450Z,101576.92
2023-03-16T16:21:55.635Z,101578.67
2023-03-16T16:27:02.793Z,101586.17
2023-03-16T16:32:25.027Z,101594.99
2023-03-16T16:37:35.906Z,101605.70
2023-03-16T16:42:43.346Z,101611.00
2023-03-16T16:47:52.598Z,101616.84
2023-03-16T16:53:00.212Z,101620.25
2023-03-16T16:58:23.560Z,101625.85
2023-03-16T17:03:34.154Z,101636.02
2023-03-16T17:08:41.725Z,101636.10
2023-03-16T17:13:49.509Z,101634.35
2023-03-16T17:18:57.704Z,101643.36
2023-03-16T17:24:05.032Z,101651.52
2023-03-16T17:29:23.238Z,101654.94
2023-03-16T17:34:33.592Z,101657.25
2023-03-16T17:39:42.223Z,101659.36
2023-03-16T17:44:53.936Z,101660.95
2023-03-16T17:50:01.258Z,101662.34
2023-03-16T17:55:09.993Z,101665.93
2023-03-16T18:00:28.839Z,101681.40
2023-03-16T18:05:37.492Z,101684.99
2023-03-16T18:10:47.482Z,101689.95
2023-03-16T18:15:55.983Z,101690.73
2023-03-16T18:21:03.358Z,101691.27
2023-03-16T18:26:11.953Z,101693.27
2023-03-16T18:31:25.855Z,101689.86
2023-03-16T18:36:36.995Z,101694.40
2023-03-16T18:41:44.874Z,101696.55
2023-03-16T18:46:55.168Z,101701.77
2023-03-16T18:52:03.196Z,101709.51
2023-03-16T18:57:15.881Z,101703.63
2023-03-16T19:02:34.748Z,101701.43
2023-03-16T19:07:47.176Z,101703.14
2023-03-16T19:12:56.852Z,101705.69
2023-03-16T19:18:04.388Z,101705.09
2023-03-16T19:23:21.911Z,101716.88
2023-03-16T19:28:34.062Z,101723.30
2023-03-16T19:33:42.296Z,101729.21
2023-03-16T19:38:51.202Z,101737.15
2023-03-16T19:44:04.111Z,101748.04
2023-03-16T19:49:19.921Z,101754.98
2023-03-16T19:54:29.691Z,101754.30
2023-03-16T19:59:39.561Z,101752.31
2023-03-16T20:04:46.747Z,101746.34
2023-03-16T20:09:54.604Z,101745.15
2023-03-16T20:15:02.065Z,101749.29
2023-03-16T20:20:21.924Z,101743.46
2023-03-16T20:25:35.384Z,101733.21
2023-03-16T20:30:43.811Z,101725.96
2023-03-16T20:35:54.570Z,101723.88
2023-03-16T20:41:02.736Z,101727.23
2023-03-16T20:46:16.367Z,101728.67
2023-03-16T20:51:24.945Z,101726.84
2023-03-16T20:56:32.917Z,101732.02
2023-03-16T21:01:45.294Z,101731.23
2023-03-16T21:06:53.766Z,101741.13
2023-03-16T21:12:01.319Z,101738.84
2023-03-16T21:17:24.651Z,101735.80
2023-03-16T21:22:35.267Z,101730.44
2023-03-16T21:27:43.828Z,101736.08
2023-03-16T21:32:52.512Z,101734.36
2023-03-16T21:37:59.981Z,101725.55
2023-03-16T21:43:06.631Z,101729.17
2023-03-16T21:48:21.409Z,101730.39
2023-03-16T21:53:33.558Z,101732.99
2023-03-16T21:58:41.740Z,101740.03
2023-03-16T22:03:53.410Z,101742.44
2023-03-16T22:09:02.822Z,101743.33
2023-03-16T22:14:13.097Z,101742.00
2023-03-16T22:19:21.270Z,101752.52
2023-03-16T22:24:34.857Z,101754.09
2023-03-16T22:29:44.991Z,101754.95
2023-03-16T22:34:56.333Z,101758.35
2023-03-16T22:40:05.086Z,101764.02
2023-03-16T22:45:24.080Z,101766.05
2023-03-16T22:50:36.340Z,101764.80
2023-03-16T22:55:46.168Z,101765.91
2023-03-16T23:00:53.998Z,101762.20
2023-03-16T23:06:01.739Z,101758.84
2023-03-16T23:11:17.404Z,101762.88
2023-03-16T23:16:27.544Z,101762.02
2023-03-16T23:21:34.857Z,101753.27
2023-03-16T23:26:41.974Z,101747.40
2023-03-16T23:31:49.253Z,101743.23
2023-03-16T23:36:56.288Z,101743.17
2023-03-16T23:42:04.062Z,101739.24
2023-03-16T23:47:10.964Z,101736.35
2023-03-16T23:52:18.169Z,101734.18
2023-03-16T23:57:25.702Z,101733.98
